MET'MAP v2.0
soon released !

Expected late october,
this new version will be
more efficient, smarter,
and hosted on a brand new
server x3 powerfull...
...and still free !


Not compatible ?
Try the mobile version !

LOG IN : | Subscribe | Disclaimer | Who is Orbifly ? |
ICAO code :
Legend : VFR Marginal VFR IFR Intensive IFR Very Intensive IFR
Visi :
Ceiling :
>= 8 km
>= 3000ft
5 to 8 km
1000 to 3000 ft
1500m to 5 km
500 to 1000 ft
800 to 1500m
200 to 500 ft
< 800m
< 200 ft

METAR - EGSS London Stansted - 27 May 2020 05:39 UTC
Data Sources :     NOAA   


- Airport Elevation : 348 ft
- IATA code : STN
- No reported NOTAMs.


EGSS - London Stansted

Latest METAR recorded : 2015/08/11 07:50 EGSS 110750Z 34005KT CAVOK 14/11 Q1019
TAF TAF EGSS
Valid from the 27 at 00:00 until the 28 at 06:00 UTC


262256Z 2700/2806 01005KT 9999 SCT045
BECMG 2715/2718 12010KT
BECMG 2721/2724 03006KT
PROB30
TEMPO 2800/2806 8000 BKN007

Source NOAA
ATIS : +44 1279 669 325


MET'MAP, your aeronautical weather chart ! - Copyright ORBIFLY December 2007

Programming & Development : Alexandra Zaïnal
Co-Developer : Marc-Olivier Méhu
Technical & hardware support : Manuel Goepfert
Concept & Financing : Baudouin d'Aumeries